Time;durP1;ratioP1;P1;durP2;ratioP2;P2;SDS_P1;SDS_P2;PMS_P1;PMS_P2;Temp;Humidity;BMP_temperature;BMP_pressure;BME280_temperature;BME280_humidity;BME280_pressure;Samples;Min_cycle;Max_cycle;Signal;HPM_P1;HPM_P2
2023/05/29 00:01:25;;;;;;;7.43;2.90;;;;;;;20.80;52.72;102251.56;6124276;23;20006;-56
2023/05/29 00:03:51;;;;;;;3.65;2.75;;;;;;;20.81;52.49;102257.84;6123604;23;20040;-55
2023/05/29 00:06:16;;;;;;;3.92;2.53;;;;;;;20.80;52.94;102259.69;6123625;23;20013;-55
2023/05/29 00:08:42;;;;;;;4.28;2.75;;;;;;;20.79;52.90;102259.81;6123192;23;20010;-56
2023/05/29 00:11:08;;;;;;;5.68;2.60;;;;;;;20.80;53.06;102269.66;6123455;23;20036;-56
2023/05/29 00:13:33;;;;;;;3.17;2.47;;;;;;;20.79;52.66;102267.94;6123582;23;20006;-56
2023/05/29 00:16:00;;;;;;;3.88;2.58;;;;;;;20.79;52.78;102278.75;6124194;23;20006;-55
2023/05/29 00:18:26;;;;;;;5.65;2.70;;;;;;;20.78;53.05;102279.78;6123938;23;20010;-56
2023/05/29 00:20:52;;;;;;;3.67;2.30;;;;;;;20.77;53.04;102273.50;6123542;23;20378;-55
2023/05/29 00:23:18;;;;;;;3.75;2.38;;;;;;;20.78;53.11;102277.06;6123472;23;20077;-56
2023/05/29 00:25:45;;;;;;;7.20;2.50;;;;;;;20.76;52.84;102270.94;6123601;23;20026;-56
2023/05/29 00:28:12;;;;;;;5.43;2.75;;;;;;;20.76;52.52;102282.59;6123224;23;20022;-56
2023/05/29 00:30:37;;;;;;;3.67;2.60;;;;;;;20.75;52.47;102282.72;6097156;23;20033;-56
2023/05/29 00:33:03;;;;;;;3.35;2.33;;;;;;;20.74;52.73;102271.06;6123261;23;20473;-55
2023/05/29 00:35:28;;;;;;;4.35;2.85;;;;;;;20.75;52.62;102282.72;6123972;23;20030;-55
2023/05/29 00:37:53;;;;;;;4.07;2.70;;;;;;;20.73;52.84;102293.69;6123088;23;20085;-56
2023/05/29 00:40:19;;;;;;;6.22;3.20;;;;;;;20.73;52.87;102290.97;6123270;23;20033;-56
2023/05/29 00:42:44;;;;;;;6.13;2.60;;;;;;;20.74;52.27;102286.44;6123284;23;20010;-56
2023/05/29 00:45:12;;;;;;;2.85;2.40;;;;;;;20.73;52.32;102293.69;6123134;23;20006;-55
2023/05/29 00:47:39;;;;;;;5.35;2.60;;;;;;;20.73;52.47;102290.13;6123031;23;20009;-55
2023/05/29 00:50:06;;;;;;;5.38;2.80;;;;;;;20.71;52.87;102298.38;6123009;23;20010;-56
2023/05/29 00:52:32;;;;;;;5.20;2.60;;;;;;;20.70;52.54;102297.50;6122945;23;20017;-56
2023/05/29 00:55:00;;;;;;;7.05;2.47;;;;;;;20.71;52.65;102298.38;6097726;23;20009;-55
2023/05/29 00:57:25;;;;;;;4.03;2.40;;;;;;;20.70;52.64;102302.06;6122991;23;20010;-56
2023/05/29 00:59:51;;;;;;;5.82;2.42;;;;;;;20.69;52.23;102301.22;6123082;23;20097;-55
2023/05/29 01:02:18;;;;;;;4.05;2.10;;;;;;;20.69;52.44;102298.53;6123317;23;20013;-56
2023/05/29 01:04:45;;;;;;;4.90;2.50;;;;;;;20.67;51.90;102302.31;6122926;23;20084;-55
2023/05/29 01:07:10;;;;;;;4.78;2.17;;;;;;;20.67;52.23;102305.88;6122819;23;20006;-56
2023/05/29 01:09:36;;;;;;;7.63;2.55;;;;;;;20.68;52.10;102312.19;6123057;23;20010;-56
2023/05/29 01:12:02;;;;;;;7.50;2.65;;;;;;;20.66;52.02;102309.59;6123274;23;20033;-56
2023/05/29 01:14:39;;;;;;;4.50;2.10;;;;;;;20.67;52.06;102313.16;6123791;23;20418;-56
2023/05/29 01:17:22;;;;;;;4.97;2.50;;;;;;;20.65;52.37;102305.16;6123076;23;20002;-56
2023/05/29 01:20:26;;;;;;;4.68;2.40;;;;;;;20.68;52.15;102314.88;6123070;23;20072;-55
2023/05/29 01:23:11;;;;;;;8.02;2.28;;;;;;;20.66;51.92;102319.56;6102050;23;20093;-55
2023/05/29 01:26:03;;;;;;;5.80;2.65;;;;;;;20.67;52.03;102319.41;6123144;23;20299;-55
2023/05/29 01:28:35;;;;;;;4.40;2.10;;;;;;;20.64;51.76;102322.41;6117652;23;20044;-55
2023/05/29 01:31:02;;;;;;;5.85;2.33;;;;;;;20.64;51.39;102318.84;6123646;23;20018;-55
2023/05/29 01:33:28;;;;;;;5.75;2.30;;;;;;;20.62;51.73;102305.44;6123571;23;20002;-56
2023/05/29 01:35:53;;;;;;;5.18;2.25;;;;;;;20.64;52.10;102319.69;6122909;23;20010;-56
2023/05/29 01:38:18;;;;;;;6.82;2.72;;;;;;;20.64;52.45;102316.13;6122785;23;20014;-55
2023/05/29 01:40:44;;;;;;;7.43;2.40;;;;;;;20.63;52.00;102312.53;6122851;23;20431;-56
2023/05/29 01:43:10;;;;;;;6.60;2.53;;;;;;;20.62;52.38;102316.25;6122920;23;20329;-56
2023/05/29 01:45:36;;;;;;;4.78;2.10;;;;;;;20.61;52.27;102316.38;6122753;23;20329;-55
2023/05/29 01:48:02;;;;;;;5.75;2.20;;;;;;;20.60;52.04;102320.94;6123605;23;20093;-55
2023/05/29 01:50:28;;;;;;;5.65;2.25;;;;;;;20.60;51.82;102312.81;6097082;23;20013;-55
2023/05/29 01:52:53;;;;;;;8.90;2.70;;;;;;;20.59;51.76;102302.94;6122674;23;20021;-55
2023/05/29 01:55:19;;;;;;;5.97;2.58;;;;;;;20.58;51.85;102312.06;6122730;23;20321;-55
2023/05/29 01:57:45;;;;;;;5.00;2.50;;;;;;;20.57;52.16;102301.34;6122994;23;20010;-55
2023/05/29 02:00:11;;;;;;;3.97;2.13;;;;;;;20.58;51.65;102309.34;6122789;23;20093;-56
2023/05/29 02:02:40;;;;;;;4.10;2.05;;;;;;;20.57;51.66;102304.06;6124597;23;20418;-56
2023/05/29 02:05:07;;;;;;;4.40;2.10;;;;;;;20.56;51.40;102302.31;6124688;23;20117;-56
2023/05/29 02:07:33;;;;;;;4.55;2.20;;;;;;;20.56;51.49;102311.31;6125128;23;20002;-56
2023/05/29 02:09:58;;;;;;;5.20;2.08;;;;;;;20.55;51.30;102304.19;6124595;23;20444;-55
2023/05/29 02:12:24;;;;;;;4.03;2.05;;;;;;;20.55;51.54;102315.00;6124654;23;20088;-55
2023/05/29 02:14:49;;;;;;;7.88;2.20;;;;;;;20.55;51.18;102306.88;6124413;23;20024;-56
2023/05/29 02:17:19;;;;;;;5.07;2.35;;;;;;;20.54;50.99;102310.56;6124570;23;20020;-56
2023/05/29 02:19:44;;;;;;;5.25;2.47;;;;;;;20.53;51.70;102305.31;6124781;23;20020;-56
2023/05/29 02:22:10;;;;;;;5.03;1.77;;;;;;;20.53;51.26;102314.28;6124303;23;20077;-56
2023/05/29 02:24:35;;;;;;;4.95;2.03;;;;;;;20.53;50.94;102305.31;6124467;23;20002;-56
2023/05/29 02:27:00;;;;;;;5.00;2.00;;;;;;;20.52;51.43;102307.13;6124731;23;20014;-56
2023/05/29 02:29:26;;;;;;;5.55;2.20;;;;;;;20.52;51.37;102307.13;6124665;23;20413;-56
2023/05/29 02:31:51;;;;;;;8.20;2.28;;;;;;;20.51;51.15;102317.09;6124401;23;20010;-55
2023/05/29 02:34:16;;;;;;;5.57;1.80;;;;;;;20.51;51.05;102321.66;6124218;23;20469;-56
2023/05/29 02:36:42;;;;;;;3.85;1.77;;;;;;;20.50;50.94;102319.94;6124285;23;20033;-56
2023/05/29 02:39:07;;;;;;;6.65;1.92;;;;;;;20.50;51.27;102328.03;6124453;23;20017;-56
2023/05/29 02:41:32;;;;;;;4.72;2.10;;;;;;;20.49;50.66;102329.06;6124895;23;20006;-56
2023/05/29 02:43:58;;;;;;;7.15;2.30;;;;;;;20.49;51.19;102331.75;6098375;23;20016;-55
2023/05/29 02:46:23;;;;;;;6.10;2.33;;;;;;;20.48;50.73;102333.56;6124331;23;20310;-55
2023/05/29 02:48:48;;;;;;;5.13;1.70;;;;;;;20.48;50.97;102327.31;6124315;23;20340;-56
2023/05/29 02:51:14;;;;;;;5.10;1.70;;;;;;;20.48;50.86;102327.31;6124754;23;20033;-56
2023/05/29 02:53:40;;;;;;;4.82;1.88;;;;;;;20.47;50.43;102331.03;6124381;23;20010;-56
2023/05/29 02:56:07;;;;;;;7.00;2.00;;;;;;;20.46;50.68;102337.41;6124828;23;20426;-55
2023/05/29 02:58:32;;;;;;;4.22;1.70;;;;;;;20.46;50.33;102337.41;6124800;23;20002;-56
2023/05/29 03:00:58;;;;;;;6.45;2.05;;;;;;;20.45;50.50;102333.00;6123979;23;20056;-56
2023/05/29 03:03:23;;;;;;;6.78;2.40;;;;;;;20.44;50.29;102332.13;6124489;23;20010;-55
2023/05/29 03:05:49;;;;;;;3.85;1.60;;;;;;;20.45;50.53;102333.00;6124100;23;20006;-55
2023/05/29 03:08:14;;;;;;;4.00;1.80;;;;;;;20.45;50.22;102335.72;6123952;23;20085;-56
2023/05/29 03:10:39;;;;;;;5.40;2.05;;;;;;;20.42;49.93;102328.69;6124077;23;20010;-56
2023/05/29 03:13:06;;;;;;;6.53;2.20;;;;;;;20.43;50.00;102329.56;6123911;23;20016;-55
2023/05/29 03:15:31;;;;;;;5.50;1.95;;;;;;;20.42;50.24;102327.81;6098301;23;20018;-55
2023/05/29 03:17:57;;;;;;;6.03;1.98;;;;;;;20.41;50.32;102335.09;6123998;23;20009;-55
2023/05/29 03:20:23;;;;;;;6.38;2.22;;;;;;;20.41;49.97;102331.50;6123889;23;20010;-56
2023/05/29 03:22:48;;;;;;;6.93;2.00;;;;;;;20.40;50.34;102332.50;6123740;23;20010;-56
2023/05/29 03:25:16;;;;;;;6.85;1.98;;;;;;;20.40;49.84;102335.22;6123975;23;20105;-56
2023/05/29 03:27:41;;;;;;;6.22;1.83;;;;;;;20.39;49.83;102334.38;6123484;23;20050;-56
2023/05/29 03:30:07;;;;;;;4.05;1.77;;;;;;;20.39;49.71;102333.47;6124514;23;20009;-55
2023/05/29 03:32:32;;;;;;;6.38;2.15;;;;;;;20.38;49.67;102339.91;6124258;23;20006;-55
2023/05/29 03:34:58;;;;;;;5.15;2.00;;;;;;;20.39;49.70;102344.31;6123724;23;20417;-55
2023/05/29 03:37:23;;;;;;;3.65;1.95;;;;;;;20.37;49.66;102349.88;6123723;23;20010;-55
2023/05/29 03:39:48;;;;;;;5.10;1.67;;;;;;;20.37;49.77;102346.28;6097887;23;20006;-56
2023/05/29 03:42:14;;;;;;;7.38;2.35;;;;;;;20.36;49.12;102339.16;6123788;23;20017;-55
2023/05/29 03:44:41;;;;;;;5.18;1.77;;;;;;;20.36;49.80;102339.16;6123670;23;20032;-56
2023/05/29 03:47:08;;;;;;;7.03;2.22;;;;;;;20.35;49.11;102345.53;6124456;23;20006;-55
2023/05/29 03:49:34;;;;;;;5.53;1.73;;;;;;;20.35;49.36;102340.97;6124332;23;20006;-56
2023/05/29 03:52:00;;;;;;;3.65;1.92;;;;;;;20.35;49.34;102340.13;6123687;23;20010;-55
2023/05/29 03:54:25;;;;;;;7.47;2.03;;;;;;;20.34;49.12;102343.84;6123613;23;20099;-55
2023/05/29 03:56:51;;;;;;;6.15;1.67;;;;;;;20.34;49.91;102347.41;6123629;23;20170;-56
2023/05/29 03:59:16;;;;;;;5.78;1.88;;;;;;;20.34;49.51;102351.94;6097763;23;20006;-56
2023/05/29 04:01:42;;;;;;;8.50;2.03;;;;;;;20.33;49.13;102351.06;6123838;23;20064;-56
2023/05/29 04:04:07;;;;;;;4.63;1.90;;;;;;;20.33;49.37;102353.78;6124213;23;20009;-55
2023/05/29 04:06:32;;;;;;;4.13;1.75;;;;;;;20.33;49.13;102366.44;6123635;23;20085;-56
2023/05/29 04:08:58;;;;;;;3.78;1.38;;;;;;;20.32;49.17;102362.91;6123778;23;20006;-55
2023/05/29 04:11:23;;;;;;;6.50;2.20;;;;;;;20.31;48.77;102364.75;6123505;23;20012;-56
2023/05/29 04:13:49;;;;;;;6.03;1.85;;;;;;;20.31;49.08;102367.44;6123306;23;20016;-55
2023/05/29 04:16:15;;;;;;;5.45;1.75;;;;;;;20.31;48.74;102364.75;6123573;23;20013;-55
2023/05/29 04:18:41;;;;;;;8.95;2.13;;;;;;;20.30;49.18;102362.16;6097809;23;20013;-56
2023/05/29 04:21:06;;;;;;;3.83;1.58;;;;;;;20.30;49.12;102370.28;6124085;23;20338;-55
2023/05/29 04:23:32;;;;;;;4.63;1.80;;;;;;;20.28;48.85;102370.41;6123051;23;20421;-55
2023/05/29 04:25:57;;;;;;;7.38;2.17;;;;;;;20.29;48.87;102365.84;6123408;23;20013;-55
2023/05/29 04:28:23;;;;;;;7.50;2.30;;;;;;;20.29;48.69;102365.84;6123344;23;20018;-56
2023/05/29 04:30:49;;;;;;;4.10;1.73;;;;;;;20.28;48.35;102362.28;6123543;23;20382;-55
2023/05/29 04:33:15;;;;;;;5.65;1.88;;;;;;;20.28;48.92;102369.53;6123277;23;20006;-55
2023/05/29 04:35:42;;;;;;;4.82;1.88;;;;;;;20.28;48.53;102373.09;6124095;23;20428;-55
2023/05/29 04:38:09;;;;;;;4.70;1.80;;;;;;;20.27;48.71;102374.06;6124088;23;20382;-55
2023/05/29 04:40:36;;;;;;;3.78;1.63;;;;;;;20.28;48.69;102374.94;6123466;23;20061;-55
2023/05/29 04:43:02;;;;;;;5.18;1.58;;;;;;;20.27;48.69;102374.06;6123552;23;20476;-55
2023/05/29 04:45:27;;;;;;;6.80;1.83;;;;;;;20.27;48.88;102373.22;6123230;23;20009;-55
2023/05/29 04:47:54;;;;;;;4.03;1.70;;;;;;;20.27;48.46;102374.06;6097341;23;20333;-56
2023/05/29 04:50:20;;;;;;;4.03;1.85;;;;;;;20.27;48.04;102379.47;6123423;23;20477;-56
2023/05/29 04:52:46;;;;;;;4.82;1.88;;;;;;;20.27;48.82;102379.47;6122786;23;20033;-55
2023/05/29 04:55:11;;;;;;;4.95;1.98;;;;;;;20.26;48.36;102379.63;6123764;23;20097;-55
2023/05/29 04:57:37;;;;;;;5.85;2.20;;;;;;;20.25;48.74;102381.44;6123545;23;20061;-56
2023/05/29 05:00:08;;;;;;;6.97;1.83;;;;;;;20.26;48.65;102385.88;6123104;23;20053;-55
2023/05/29 05:02:33;;;;;;;6.18;2.08;;;;;;;20.26;48.59;102376.94;6123332;23;20018;-56
2023/05/29 05:04:59;;;;;;;6.32;2.10;;;;;;;20.26;49.08;102380.47;6122995;23;20006;-55
2023/05/29 05:07:24;;;;;;;5.45;1.50;;;;;;;20.25;48.03;102386.00;6123118;23;20018;-55
2023/05/29 05:09:49;;;;;;;5.43;2.20;;;;;;;20.25;48.46;102381.44;6122987;23;20018;-55
2023/05/29 05:12:15;;;;;;;7.78;1.83;;;;;;;20.25;48.71;102375.19;6123138;23;20041;-56
2023/05/29 05:14:41;;;;;;;6.05;1.85;;;;;;;20.24;48.86;102382.44;6123707;23;20040;-55
2023/05/29 05:17:06;;;;;;;4.93;1.77;;;;;;;20.24;48.79;102387.88;6123198;23;20020;-55
2023/05/29 05:19:31;;;;;;;9.02;2.40;;;;;;;20.24;49.00;102393.28;6122835;23;20048;-55
2023/05/29 05:21:57;;;;;;;5.75;1.55;;;;;;;20.24;49.10;102387.00;6123046;23;20034;-55
2023/05/29 05:24:22;;;;;;;4.95;1.95;;;;;;;20.24;49.10;102400.53;6123237;23;20010;-55
2023/05/29 05:26:48;;;;;;;5.72;1.42;;;;;;;20.23;48.51;102399.66;6123229;23;20006;-55
2023/05/29 05:29:13;;;;;;;5.40;1.80;;;;;;;20.23;48.56;102405.06;6122626;23;20441;-55
2023/05/29 05:31:39;;;;;;;5.75;1.95;;;;;;;20.23;49.06;102418.59;6123504;23;20009;-55
2023/05/29 05:34:04;;;;;;;9.25;1.80;;;;;;;20.24;48.59;102411.34;6123097;23;20016;-55
2023/05/29 05:36:31;;;;;;;4.68;1.48;;;;;;;20.24;48.80;102417.63;6123834;23;20333;-56
2023/05/29 05:38:56;;;;;;;5.07;1.70;;;;;;;20.24;48.99;102425.72;6125146;23;20044;-55
2023/05/29 05:41:22;;;;;;;4.25;1.95;;;;;;;20.24;48.99;102420.31;6124964;23;20377;-55
2023/05/29 05:43:47;;;;;;;2.95;1.40;;;;;;;20.24;48.61;102420.31;6124873;23;20321;-56
2023/05/29 05:46:13;;;;;;;4.55;1.60;;;;;;;20.24;48.94;102414.91;6125503;23;20009;-55
2023/05/29 05:48:40;;;;;;;4.60;1.70;;;;;;;20.24;48.74;102416.75;6124814;23;20053;-55
2023/05/29 05:51:06;;;;;;;4.20;1.40;;;;;;;20.24;48.68;102403.25;6125084;23;20016;-55
2023/05/29 05:53:31;;;;;;;3.65;1.60;;;;;;;20.25;48.96;102408.50;6124660;23;20437;-55
2023/05/29 05:55:56;;;;;;;4.85;1.55;;;;;;;20.23;48.76;102399.66;6124754;23;20010;-55
2023/05/29 05:58:22;;;;;;;3.15;1.23;;;;;;;20.24;49.10;102401.38;6124739;23;20025;-55
2023/05/29 06:00:47;;;;;;;4.78;1.70;;;;;;;20.25;49.33;102399.53;6124703;23;20006;-56
2023/05/29 06:03:12;;;;;;;5.75;1.60;;;;;;;20.25;49.27;102403.09;6125413;23;20002;-55
2023/05/29 06:05:40;;;;;;;7.57;1.58;;;;;;;20.24;49.16;102398.69;6124776;23;20080;-55
2023/05/29 06:08:08;;;;;;;4.78;1.45;;;;;;;20.25;49.61;102408.50;6124642;23;20451;-56
2023/05/29 06:10:33;;;;;;;6.30;2.05;;;;;;;20.25;49.43;102408.50;6124836;23;20081;-56
2023/05/29 06:12:59;;;;;;;7.32;1.60;;;;;;;20.25;49.77;102413.91;6124300;23;20092;-56
2023/05/29 06:15:24;;;;;;;3.15;1.30;;;;;;;20.25;50.03;102419.31;6124588;23;20006;-56
2023/05/29 06:17:51;;;;;;;6.57;1.70;;;;;;;20.26;49.86;102414.78;6124496;23;20010;-56
2023/05/29 06:20:17;;;;;;;5.47;1.83;;;;;;;20.25;49.94;102419.31;6124745;23;20314;-56
2023/05/29 06:22:42;;;;;;;11.35;1.90;;;;;;;20.26;49.91;102425.63;6124965;23;20017;-56
2023/05/29 06:25:09;;;;;;;9.18;2.40;;;;;;;20.24;49.55;102417.63;6124470;23;20006;-56
2023/05/29 06:27:34;;;;;;;8.18;2.00;;;;;;;20.24;49.61;102428.44;6123694;23;20104;-56
2023/05/29 06:30:00;;;;;;;8.80;1.67;;;;;;;20.25;49.06;102432.00;6124089;23;20010;-56
2023/05/29 06:32:27;;;;;;;8.82;1.90;;;;;;;20.25;49.40;102434.69;6123507;23;20010;-56
2023/05/29 06:34:53;;;;;;;4.30;1.80;;;;;;;20.24;49.43;102433.00;6123744;23;20014;-56
2023/05/29 06:37:18;;;;;;;4.22;1.45;;;;;;;20.24;49.26;102433.00;6123903;23;20061;-56
2023/05/29 06:39:45;;;;;;;5.18;1.63;;;;;;;20.24;49.48;102436.53;6124765;23;20037;-56
2023/05/29 06:42:10;;;;;;;8.20;1.63;;;;;;;20.24;49.57;102438.41;6124050;23;20033;-57
2023/05/29 06:44:35;;;;;;;6.07;1.60;;;;;;;20.24;49.23;102438.41;6098114;23;20721;-55
2023/05/29 06:47:01;;;;;;;8.45;1.70;;;;;;;20.23;49.12;102425.84;6124092;23;20006;-56
2023/05/29 06:49:26;;;;;;;4.78;1.63;;;;;;;20.23;48.93;102431.25;6123560;23;20347;-56
2023/05/29 06:51:52;;;;;;;6.53;1.92;;;;;;;20.23;48.96;102432.09;6123934;23;20013;-56
2023/05/29 06:54:17;;;;;;;7.53;1.88;;;;;;;20.21;49.27;102428.66;6123658;23;20006;-56
2023/05/29 06:56:43;;;;;;;5.30;1.80;;;;;;;20.23;49.28;102431.25;6124517;23;20006;-56
2023/05/29 06:59:08;;;;;;;8.07;1.77;;;;;;;20.22;49.28;102435.81;6098360;23;20430;-56
2023/05/29 07:01:34;;;;;;;4.28;1.52;;;;;;;20.22;49.45;102437.63;6123904;23;20016;-55
2023/05/29 07:03:59;;;;;;;7.15;1.77;;;;;;;20.23;49.21;102439.38;6123852;23;20012;-57
2023/05/29 07:06:24;;;;;;;6.82;1.55;;;;;;;20.23;49.22;102445.63;6123929;23;20484;-56
2023/05/29 07:08:50;;;;;;;6.10;1.88;;;;;;;20.23;49.24;102442.91;6124016;23;20006;-56
2023/05/29 07:11:15;;;;;;;8.30;2.03;;;;;;;20.22;49.48;102441.22;6099454;23;20864;-55
2023/05/29 07:13:40;;;;;;;8.93;2.05;;;;;;;20.22;48.24;102441.22;6122954;23;20048;-55
2023/05/29 07:16:06;;;;;;;12.18;2.55;;;;;;;20.20;47.06;102436.91;6120660;23;20097;-55
2023/05/29 07:18:31;;;;;;;5.97;2.13;;;;;;;20.18;47.00;102441.56;6123011;23;20317;-56
2023/05/29 07:20:57;;;;;;;6.68;2.33;;;;;;;20.18;47.51;102445.16;6121288;23;20107;-56
2023/05/29 07:37:34;;;;;;;15.25;5.90;;;;;;;20.47;48.99;102447.38;5078172;27;20407;-55
2023/05/29 07:40:00;;;;;;;31.63;6.00;;;;;;;20.47;49.11;102450.94;5074168;28;20066;-54
2023/05/29 07:42:25;;;;;;;17.77;5.47;;;;;;;20.49;49.59;102458.94;5075025;28;20489;-57
2023/05/29 07:44:50;;;;;;;18.70;6.03;;;;;;;20.49;49.51;102458.94;5076661;28;20040;-57
2023/05/29 07:47:16;;;;;;;21.45;5.57;;;;;;;20.49;49.25;102453.50;5072915;28;20017;-57
2023/05/29 07:49:42;;;;;;;16.02;4.85;;;;;;;20.47;49.53;102472.56;5065081;28;20072;-56
2023/05/29 07:52:07;;;;;;;11.55;4.22;;;;;;;20.48;49.97;102462.59;5061594;28;20037;-51
2023/05/29 07:54:33;;;;;;;17.48;4.40;;;;;;;20.48;49.67;102466.16;5061525;28;20057;-49
2023/05/29 07:56:59;;;;;;;12.13;3.95;;;;;;;20.49;50.02;102459.78;5061348;28;20025;-49
2023/05/29 07:59:25;;;;;;;17.95;4.32;;;;;;;20.49;50.14;102459.78;5065710;28;20076;-47
2023/05/29 08:01:51;;;;;;;14.25;4.07;;;;;;;20.50;49.76;102464.22;5057310;28;20476;-50
2023/05/29 08:04:16;;;;;;;15.88;4.00;;;;;;;20.48;49.84;102455.34;5062371;28;20032;-46
2023/05/29 08:06:43;;;;;;;14.98;3.58;;;;;;;20.49;49.53;102461.63;5068539;28;20016;-49
2023/05/29 08:09:09;;;;;;;16.60;3.92;;;;;;;20.49;49.87;102472.47;5065832;28;20068;-46
2023/05/29 08:11:36;;;;;;;14.20;3.40;;;;;;;20.49;49.23;102475.16;5064522;28;20033;-53
2023/05/29 08:14:01;;;;;;;12.93;3.10;;;;;;;20.48;49.10;102462.59;5064584;28;20041;-52
2023/05/29 08:16:27;;;;;;;10.95;2.97;;;;;;;20.48;49.26;102462.59;5063153;28;20083;-48
2023/05/29 08:18:53;;;;;;;13.63;3.00;;;;;;;20.49;49.42;102470.59;5067498;28;20032;-46
2023/05/29 08:21:18;;;;;;;12.38;3.15;;;;;;;20.48;49.15;102466.16;5062264;28;20024;-46
2023/05/29 08:23:44;;;;;;;10.48;3.05;;;;;;;20.49;49.09;102465.19;5067409;28;20071;-49
2023/05/29 08:26:10;;;;;;;10.18;2.92;;;;;;;20.49;48.94;102476.00;5061133;28;20463;-47
2023/05/29 08:28:35;;;;;;;8.02;2.60;;;;;;;20.50;49.09;102474.16;5064533;28;20033;-51
2023/05/29 08:31:00;;;;;;;11.18;3.03;;;;;;;20.50;48.82;102477.75;5059723;28;20036;-48
2023/05/29 08:33:26;;;;;;;8.55;2.97;;;;;;;20.51;49.27;102478.59;5066369;28;20422;-50
2023/05/29 08:35:51;;;;;;;8.25;2.40;;;;;;;20.50;49.14;102472.34;5059566;28;20048;-47
2023/05/29 08:38:17;;;;;;;5.50;2.00;;;;;;;20.52;49.17;102480.31;5060379;28;20577;-50
2023/05/29 08:40:42;;;;;;;9.68;2.30;;;;;;;20.50;49.50;102488.56;5063669;28;20544;-51
2023/05/29 08:43:20;;;;;;;7.82;2.83;;;;;;;20.51;48.90;102484.00;5059132;28;20429;-47
2023/05/29 08:45:52;;;;;;;9.07;2.20;;;;;;;20.52;49.02;102474.91;5063777;28;20417;-50
2023/05/29 08:48:18;;;;;;;;;;;;;;;20.62;49.06;102485.88;5052807;28;20017;-47
2023/05/29 08:50:46;;;;;;;8.77;2.72;;;;;;;20.54;48.83;102478.34;5046754;28;19913;-49
2023/05/29 08:53:13;;;;;;;4.82;2.42;;;;;;;20.53;48.74;102487.47;5049232;28;20091;-48
2023/05/29 08:55:39;;;;;;;10.10;2.50;;;;;;;20.53;48.80;102487.47;5046026;28;20033;-46
2023/05/29 08:58:05;;;;;;;7.82;2.50;;;;;;;20.53;48.55;102484.75;5046343;28;20044;-47
2023/05/29 09:00:31;;;;;;;7.45;2.40;;;;;;;20.53;48.48;102495.56;5049516;28;20040;-49
2023/05/29 09:02:59;;;;;;;6.97;2.58;;;;;;;20.53;48.62;102486.59;5045626;28;20029;-51
2023/05/29 09:05:27;;;;;;;7.43;1.92;;;;;;;20.53;48.80;102487.47;5047354;28;20120;-47
2023/05/29 09:07:53;;;;;;;9.00;2.08;;;;;;;20.52;48.77;102483.00;5053741;28;20048;-51
2023/05/29 09:10:20;;;;;;;5.15;2.03;;;;;;;20.53;48.61;102482.03;5053039;28;20040;-48
2023/05/29 09:12:46;;;;;;;4.93;2.03;;;;;;;20.54;48.71;102488.31;5048970;28;20067;-48
2023/05/29 09:15:21;;;;;;;6.03;2.55;;;;;;;20.53;48.83;102482.03;5051191;28;20053;-49
2023/05/29 09:17:55;;;;;;;7.45;2.13;;;;;;;20.55;48.67;102485.47;5051133;28;20028;-49
2023/05/29 09:20:24;;;;;;;8.40;2.00;;;;;;;20.54;48.23;102491.00;5052774;28;20466;-51
2023/05/29 09:22:57;;;;;;;7.88;2.75;;;;;;;20.55;48.33;102492.75;5046961;28;20078;-51
2023/05/29 09:25:24;;;;;;;7.53;2.10;;;;;;;20.56;48.54;102483.63;5056223;28;20037;-47
2023/05/29 09:28:05;;;;;;;5.60;2.47;;;;;;;20.56;48.25;102478.22;5051448;28;20481;-47
2023/05/29 09:30:37;;;;;;;6.10;1.75;;;;;;;20.56;48.38;102487.22;5044962;28;20040;-50
2023/05/29 09:33:04;;;;;;;5.05;1.95;;;;;;;20.56;48.19;102487.22;5049714;28;20024;-47
2023/05/29 09:35:50;;;;;;;5.65;1.90;;;;;;;20.59;48.71;102481.53;5047263;28;20079;-49
2023/05/29 09:38:17;;;;;;;4.80;1.83;;;;;;;20.57;48.43;102482.66;5048095;28;20076;-47
2023/05/29 09:40:45;;;;;;;6.28;2.20;;;;;;;20.57;48.31;102478.09;5043311;28;20045;-50
2023/05/29 09:43:19;;;;;;;7.55;2.10;;;;;;;20.57;48.30;102472.69;5044537;28;20041;-49
2023/05/29 09:45:47;;;;;;;7.00;2.08;;;;;;;20.57;48.41;102480.81;5045927;28;20021;-50
2023/05/29 09:48:14;;;;;;;6.97;2.38;;;;;;;20.58;48.15;102474.44;5048667;28;20024;-50
2023/05/29 09:50:43;;;;;;;10.13;2.47;;;;;;;20.59;48.10;102481.53;5045851;28;20032;-50
2023/05/29 09:53:19;;;;;;;9.07;2.33;;;;;;;20.59;48.71;102473.44;5044775;28;20044;-48
2023/05/29 09:55:50;;;;;;;6.25;2.38;;;;;;;20.59;48.18;102481.53;5050930;28;20037;-47
2023/05/29 09:58:17;;;;;;;8.98;2.20;;;;;;;20.60;48.40;102482.44;5045647;28;20033;-47
2023/05/29 10:00:43;;;;;;;6.22;1.95;;;;;;;20.60;48.54;102475.19;5045426;28;20491;-47
2023/05/29 10:03:10;;;;;;;9.38;2.28;;;;;;;20.59;48.61;102472.56;5045174;28;20026;-47
2023/05/29 10:05:37;;;;;;;4.60;1.85;;;;;;;20.60;48.39;102475.19;5046227;28;20407;-48
2023/05/29 10:08:06;;;;;;;5.45;2.10;;;;;;;20.59;48.46;102473.44;5049057;28;20029;-48
2023/05/29 10:10:33;;;;;;;5.63;2.20;;;;;;;20.61;48.51;102481.47;5055858;28;20112;-47
2023/05/29 10:13:00;;;;;;;6.72;2.40;;;;;;;20.61;48.46;102473.34;5052429;28;20040;-44
2023/05/29 10:15:30;;;;;;;5.35;2.28;;;;;;;20.61;48.26;102476.91;5051002;28;20044;-48
2023/05/29 10:18:12;;;;;;;6.55;1.92;;;;;;;20.63;48.46;102477.63;5048135;28;20368;-46
2023/05/29 10:20:38;;;;;;;4.93;2.22;;;;;;;20.63;48.46;102477.63;5041231;28;20033;-48
2023/05/29 10:23:05;;;;;;;3.70;2.13;;;;;;;20.64;48.88;102484.78;5046098;28;20060;-45
2023/05/29 10:25:33;;;;;;;4.20;1.70;;;;;;;20.63;48.46;102472.22;5051003;28;20475;-45
2023/05/29 10:28:00;;;;;;;7.78;2.17;;;;;;;20.64;48.79;102471.25;5051655;28;20031;-47
2023/05/29 10:31:00;;;;;;;5.80;1.95;;;;;;;20.66;48.82;102466.56;5053527;28;20044;-45
2023/05/29 10:34:08;;;;;;;5.47;2.10;;;;;;;20.67;48.48;102468.28;5045312;28;20041;-45
2023/05/29 10:36:49;;;;;;;6.45;1.90;;;;;;;20.67;48.32;102468.28;5037843;28;20045;-47
2023/05/29 10:39:15;;;;;;;4.70;1.67;;;;;;;20.67;48.34;102468.28;5045718;28;20554;-47
2023/05/29 10:41:41;;;;;;;7.68;1.80;;;;;;;20.68;48.32;102458.34;5044456;28;20060;-49
2023/05/29 10:44:33;;;;;;;4.15;1.83;;;;;;;20.70;48.77;102457.22;5052068;28;20055;-47
2023/05/29 10:46:58;;;;;;;6.80;2.08;;;;;;;20.70;48.09;102462.63;5042505;28;20041;-49
2023/05/29 10:49:24;;;;;;;3.67;1.60;;;;;;;20.69;48.02;102458.22;5045440;28;20114;-47
2023/05/29 10:51:50;;;;;;;8.75;2.28;;;;;;;20.69;48.31;102466.34;5045988;28;20029;-47
2023/05/29 10:54:19;;;;;;;5.38;2.10;;;;;;;20.69;48.05;102458.22;5044333;28;20056;-46
2023/05/29 10:56:52;;;;;;;6.53;2.25;;;;;;;20.70;48.45;102462.63;5050593;28;20087;-51
2023/05/29 10:59:18;;;;;;;5.93;2.13;;;;;;;20.70;48.22;102457.22;5050809;28;20514;-47
2023/05/29 11:01:44;;;;;;;10.32;2.28;;;;;;;20.71;48.40;102452.66;5049897;28;20060;-48
2023/05/29 11:04:15;;;;;;;7.28;2.13;;;;;;;20.73;48.21;102456.09;5047865;28;20032;-49
2023/05/29 11:06:41;;;;;;;5.70;2.00;;;;;;;20.70;48.02;102449.09;5047325;28;20430;-47
2023/05/29 11:09:29;;;;;;;5.78;2.47;;;;;;;20.75;48.61;102445.13;5049720;28;20490;-48
2023/05/29 11:12:38;;;;;;;4.90;1.80;;;;;;;20.77;48.21;102448.56;5050119;28;20116;-49
2023/05/29 11:15:10;;;;;;;8.48;2.40;;;;;;;20.74;48.44;102449.69;5050637;28;20490;-46
2023/05/29 11:17:38;;;;;;;9.60;2.15;;;;;;;20.74;48.21;102451.56;5051027;28;20028;-47
2023/05/29 11:20:37;;;;;;;7.40;2.10;;;;;;;20.79;48.31;102443.91;5050777;28;20466;-46
2023/05/29 11:23:08;;;;;;;7.57;2.28;;;;;;;20.76;48.07;102442.31;5033285;28;20032;-48
2023/05/29 11:25:36;;;;;;;5.33;1.90;;;;;;;20.76;47.83;102444.16;5051325;28;20025;-46
2023/05/29 11:28:04;;;;;;;6.40;2.20;;;;;;;20.77;48.25;102435.03;5047615;28;20067;-48
2023/05/29 11:30:30;;;;;;;8.57;2.10;;;;;;;20.78;48.18;102443.03;5044426;28;20033;-47
2023/05/29 11:33:01;;;;;;;9.43;2.40;;;;;;;20.77;48.35;102440.47;5050732;28;20363;-50
2023/05/29 11:35:30;;;;;;;10.73;2.00;;;;;;;20.78;48.12;102436.78;5044551;28;20053;-49
2023/05/29 11:37:57;;;;;;;7.55;2.38;;;;;;;20.79;48.13;102438.47;5048766;28;20045;-46
2023/05/29 11:40:22;;;;;;;5.63;2.13;;;;;;;20.78;48.31;102440.34;5047426;28;20573;-50